Time;durP1;ratioP1;P1;durP2;ratioP2;P2;SDS_P1;SDS_P2;PMS_P1;PMS_P2;Temp;Humidity;BMP_temperature;BMP_pressure;BME280_temperature;BME280_humidity;BME280_pressure;Samples;Min_cycle;Max_cycle;Signal;HPM_P1;HPM_P2
2022/07/12 00:01:13;;;;;;;9.53;5.15;;;26.00;99.90;;;;;;1799693;78;21084;-78
2022/07/12 00:03:46;;;;;;;8.33;5.00;;;26.00;99.90;;;;;;1805536;78;21704;-78
2022/07/12 00:06:17;;;;;;;7.70;4.67;;;26.00;99.90;;;;;;1795781;79;21163;-77
2022/07/12 00:08:48;;;;;;;6.62;4.00;;;26.00;99.90;;;;;;1786183;79;21094;-77
2022/07/12 00:11:19;;;;;;;9.10;4.53;;;26.00;99.90;;;;;;1817770;77;21179;-77
2022/07/12 00:13:50;;;;;;;9.03;4.40;;;26.00;99.90;;;;;;1819583;77;21738;-77
2022/07/12 00:16:22;;;;;;;11.08;4.40;;;26.00;99.90;;;;;;1839355;77;21216;-78
2022/07/12 00:18:54;;;;;;;9.33;4.35;;;26.00;99.90;;;;;;1829768;77;21651;-77
2022/07/12 00:21:25;;;;;;;7.42;4.75;;;26.00;99.90;;;;;;1827501;78;21142;-78
2022/07/12 00:23:56;;;;;;;12.73;4.70;;;26.00;99.90;;;;;;1826923;78;21787;-78
2022/07/12 00:26:27;;;;;;;7.50;4.58;;;26.00;99.90;;;;;;1827829;78;21118;-77
2022/07/12 00:28:58;;;;;;;7.65;4.90;;;26.00;99.90;;;;;;1827504;78;21134;-77
2022/07/12 00:31:30;;;;;;;9.18;5.03;;;26.10;99.90;;;;;;1831777;77;21453;-77
2022/07/12 00:34:01;;;;;;;9.65;5.60;;;26.10;99.90;;;;;;1806484;78;21158;-76
2022/07/12 00:36:32;;;;;;;10.35;5.87;;;26.10;99.90;;;;;;1834918;77;21633;-77
2022/07/12 00:39:03;;;;;;;11.00;5.80;;;26.10;99.90;;;;;;1837566;77;21609;-78
2022/07/12 00:41:34;;;;;;;8.33;5.22;;;26.10;99.90;;;;;;1833030;77;21146;-78
2022/07/12 00:44:05;;;;;;;9.95;5.25;;;26.10;99.90;;;;;;1829195;77;21179;-78
2022/07/12 00:46:37;;;;;;;8.18;5.00;;;26.20;99.90;;;;;;1842512;77;21150;-78
2022/07/12 00:49:08;;;;;;;8.85;4.80;;;26.20;99.90;;;;;;1832967;77;21280;-77
2022/07/12 00:51:43;;;;;;;11.00;5.20;;;26.20;99.90;;;;;;1836631;77;21558;-76
2022/07/12 00:54:16;;;;;;;8.50;5.75;;;26.20;99.90;;;;;;1847933;75;21178;-77
2022/07/12 00:56:47;;;;;;;10.13;5.17;;;26.20;99.90;;;;;;1840663;78;21179;-77
2022/07/12 00:59:18;;;;;;;7.83;5.20;;;26.20;99.90;;;;;;1833950;77;21319;-78
2022/07/12 01:01:49;;;;;;;7.53;5.15;;;26.30;99.90;;;;;;1798831;78;21148;-78
2022/07/12 01:04:23;;;;;;;10.38;5.45;;;26.30;99.90;;;;;;1790849;80;21422;-77
2022/07/12 01:06:55;;;;;;;7.05;5.42;;;26.30;99.90;;;;;;1795759;79;21225;-78
2022/07/12 01:09:26;;;;;;;11.12;6.53;;;26.40;99.90;;;;;;1826319;78;21601;-78
2022/07/12 01:11:57;;;;;;;8.23;5.72;;;26.40;99.90;;;;;;1830601;77;21242;-77
2022/07/12 01:14:30;;;;;;;10.72;5.85;;;26.40;99.90;;;;;;1831378;77;21094;-77
2022/07/12 01:17:04;;;;;;;6.53;4.80;;;26.40;99.90;;;;;;1826555;77;21790;-78
2022/07/12 01:19:37;;;;;;;8.15;5.20;;;26.40;99.90;;;;;;1825826;78;21189;-77
2022/07/12 01:22:10;;;;;;;10.72;4.37;;;26.40;99.90;;;;;;1826908;77;21719;-76
2022/07/12 01:24:41;;;;;;;10.80;4.65;;;26.40;99.90;;;;;;1837362;77;21194;-77
2022/07/12 01:27:14;;;;;;;8.65;4.22;;;26.50;99.90;;;;;;1792771;79;21740;-76
2022/07/12 01:29:45;;;;;;;10.65;4.67;;;26.50;99.90;;;;;;1794304;78;21096;-76
2022/07/12 01:32:28;;;;;;;7.87;4.50;;;26.50;99.90;;;;;;1790787;80;21158;-77
2022/07/12 01:34:52;;;;;;;7.35;4.50;;;26.50;99.90;;;;;;1795661;78;21657;-77
2022/07/12 01:37:25;;;;;;;9.93;4.15;;;26.50;99.90;;;;;;1822285;78;21166;-78
2022/07/12 01:40:00;;;;;;;7.78;4.25;;;26.50;99.90;;;;;;1829326;77;21706;-78
2022/07/12 01:42:31;;;;;;;9.45;4.47;;;26.60;99.90;;;;;;1827300;78;21837;-78
2022/07/12 01:45:03;;;;;;;10.93;4.10;;;26.60;99.90;;;;;;1834381;77;21119;-77
2022/07/12 01:47:35;;;;;;;9.13;3.90;;;26.60;99.90;;;;;;1827441;77;21528;-77
2022/07/12 01:50:08;;;;;;;8.85;4.67;;;26.60;99.90;;;;;;1825968;78;21182;-76
2022/07/12 01:52:41;;;;;;;7.67;3.92;;;26.70;99.90;;;;;;1793823;79;21142;-78
2022/07/12 01:55:13;;;;;;;6.65;3.80;;;26.70;99.90;;;;;;1821027;78;21157;-77
2022/07/12 01:57:45;;;;;;;6.58;4.03;;;26.70;99.90;;;;;;1789159;80;21212;-78
2022/07/12 02:00:19;;;;;;;9.15;3.83;;;26.70;99.90;;;;;;1835786;77;21165;-77
2022/07/12 02:02:50;;;;;;;10.50;4.35;;;26.80;99.90;;;;;;1796379;80;21163;-78
2022/07/12 02:05:21;;;;;;;9.08;4.12;;;26.80;99.90;;;;;;1786364;80;21151;-78
2022/07/12 02:07:53;;;;;;;10.78;4.60;;;26.80;99.90;;;;;;1823645;78;21103;-78
2022/07/12 02:10:26;;;;;;;14.25;4.53;;;26.80;99.90;;;;;;1790689;79;21109;-79
2022/07/12 02:12:59;;;;;;;6.45;3.95;;;26.90;99.90;;;;;;1825607;78;21392;-77
2022/07/12 02:15:29;;;;;;;11.60;4.58;;;26.90;99.90;;;;;;1791342;79;21707;-77
2022/07/12 02:18:00;;;;;;;5.92;4.12;;;26.90;99.90;;;;;;1827078;77;21586;-78
2022/07/12 02:20:31;;;;;;;10.00;4.10;;;27.00;99.90;;;;;;1825775;78;21562;-78
2022/07/12 02:23:02;;;;;;;11.12;3.90;;;27.00;99.90;;;;;;1830868;77;21701;-77
2022/07/12 02:25:33;;;;;;;10.20;4.17;;;27.00;99.90;;;;;;1827628;78;21098;-77
2022/07/12 02:28:04;;;;;;;8.05;4.08;;;27.00;99.90;;;;;;1804328;79;21317;-78
2022/07/12 02:30:37;;;;;;;6.92;3.55;;;27.10;99.90;;;;;;1804603;78;21214;-78
2022/07/12 02:33:08;;;;;;;7.60;3.77;;;27.10;99.90;;;;;;1795133;79;21645;-78
2022/07/12 02:35:39;;;;;;;6.80;3.17;;;27.10;99.90;;;;;;1838218;78;21135;-78
2022/07/12 02:38:10;;;;;;;9.40;3.75;;;27.10;99.90;;;;;;1828048;77;21701;-77
2022/07/12 02:43:13;;;;;;;10.10;3.22;;;27.20;99.90;;;;;;1824559;78;21176;-77
2022/07/12 02:45:45;;;;;;;12.75;3.42;;;27.20;99.90;;;;;;1826898;78;21627;-78
2022/07/12 02:48:16;;;;;;;9.98;3.45;;;27.20;99.90;;;;;;1807668;78;21547;-79
2022/07/12 02:50:47;;;;;;;7.30;4.05;;;27.20;99.90;;;;;;1794685;80;21153;-77
2022/07/12 02:53:18;;;;;;;8.50;3.47;;;27.20;99.90;;;;;;1795709;78;21653;-77
2022/07/12 02:55:49;;;;;;;8.68;3.52;;;27.20;99.90;;;;;;1832958;77;21160;-77
2022/07/12 02:58:20;;;;;;;7.53;3.45;;;27.20;99.90;;;;;;1796630;78;21162;-77
2022/07/12 03:00:51;;;;;;;10.25;3.95;;;27.30;99.90;;;;;;1826655;78;21679;-76
2022/07/12 03:03:22;;;;;;;6.65;3.55;;;27.30;99.90;;;;;;1805808;79;21547;-76
2022/07/12 03:05:53;;;;;;;5.22;3.60;;;27.30;99.90;;;;;;1799899;78;21576;-76
2022/07/12 03:08:24;;;;;;;5.75;3.50;;;27.20;99.90;;;;;;1827892;77;21065;-76
2022/07/12 03:10:55;;;;;;;6.20;3.80;;;27.30;99.90;;;;;;1800717;77;21688;-77
2022/07/12 03:13:26;;;;;;;8.65;3.95;;;27.30;99.90;;;;;;1791195;80;21103;-76
2022/07/12 03:15:57;;;;;;;8.98;3.70;;;27.30;99.90;;;;;;1827968;76;21587;-76
2022/07/12 03:18:28;;;;;;;7.92;3.17;;;27.30;99.90;;;;;;1830154;77;21581;-76
2022/07/12 03:20:59;;;;;;;6.00;3.60;;;27.30;99.90;;;;;;1830756;78;21104;-76
2022/07/12 03:23:30;;;;;;;11.60;4.50;;;27.30;99.90;;;;;;1830715;78;21069;-77
2022/07/12 03:26:01;;;;;;;7.75;3.70;;;27.30;99.90;;;;;;1828436;78;21144;-76
2022/07/12 03:28:32;;;;;;;6.47;3.62;;;27.30;99.90;;;;;;1830359;77;21143;-77
2022/07/12 03:31:03;;;;;;;8.95;3.83;;;27.30;99.90;;;;;;1830516;77;21152;-76
2022/07/12 03:33:35;;;;;;;6.47;3.27;;;27.30;99.90;;;;;;1830253;78;21945;-77
2022/07/12 03:36:08;;;;;;;8.00;3.65;;;27.40;99.90;;;;;;1830190;78;21167;-77
2022/07/12 03:38:39;;;;;;;7.50;2.90;;;27.40;99.90;;;;;;1829606;77;21649;-77
2022/07/12 03:41:11;;;;;;;7.53;3.52;;;27.40;99.90;;;;;;1830747;78;21195;-75
2022/07/12 03:43:42;;;;;;;7.53;3.40;;;27.40;99.90;;;;;;1830643;78;21653;-76
2022/07/12 03:46:13;;;;;;;6.92;3.47;;;27.40;99.90;;;;;;1830058;77;21667;-77
2022/07/12 03:48:44;;;;;;;7.33;3.33;;;27.40;99.90;;;;;;1830243;77;21221;-77
2022/07/12 03:51:15;;;;;;;8.20;3.20;;;27.40;99.90;;;;;;1829215;77;21643;-77
2022/07/12 03:53:47;;;;;;;8.95;3.10;;;27.40;99.90;;;;;;1830046;78;21673;-78
2022/07/12 03:58:51;;;;;;;5.78;3.10;;;27.40;99.90;;;;;;1829122;78;21734;-79
2022/07/12 04:01:22;;;;;;;5.05;2.90;;;27.40;99.90;;;;;;1829106;77;21234;-78
2022/07/12 04:03:54;;;;;;;10.05;5.53;;;27.50;99.90;;;;;;1829951;78;21564;-77
2022/07/12 04:06:25;;;;;;;12.33;3.40;;;27.40;99.90;;;;;;1830735;77;21481;-78
2022/07/12 04:08:55;;;;;;;10.43;3.52;;;27.50;99.90;;;;;;1829746;78;21187;-77
2022/07/12 04:11:27;;;;;;;10.48;4.47;;;27.40;99.90;;;;;;1829189;77;21600;-77
2022/07/12 04:13:58;;;;;;;10.53;4.75;;;27.40;99.90;;;;;;1830096;77;21210;-78
2022/07/12 04:16:29;;;;;;;10.85;7.03;;;27.50;99.90;;;;;;1832063;78;21194;-78
2022/07/12 04:19:00;;;;;;;12.00;4.80;;;27.50;99.90;;;;;;1831269;77;21128;-78
2022/07/12 04:21:32;;;;;;;11.10;6.92;;;27.40;99.90;;;;;;1832925;78;21144;-77
2022/07/12 04:24:04;;;;;;;8.05;4.90;;;27.40;99.90;;;;;;1832911;78;21631;-77
2022/07/12 04:26:35;;;;;;;11.12;5.03;;;27.40;99.90;;;;;;1833382;77;21676;-78
2022/07/12 04:29:06;;;;;;;9.35;4.22;;;27.40;99.90;;;;;;1831079;77;21844;-78
2022/07/12 04:31:37;;;;;;;6.83;3.50;;;27.40;99.90;;;;;;1848763;77;21290;-77
2022/07/12 04:34:08;;;;;;;5.50;3.33;;;27.40;99.90;;;;;;1835975;77;21096;-76
2022/07/12 04:36:39;;;;;;;6.95;3.60;;;27.40;99.90;;;;;;1831301;78;21140;-76
2022/07/12 04:39:10;;;;;;;6.53;3.25;;;27.40;99.90;;;;;;1832180;78;21238;-77
2022/07/12 04:41:44;;;;;;;6.58;2.80;;;27.40;99.90;;;;;;1835940;77;21216;-77
2022/07/12 04:44:15;;;;;;;6.58;3.20;;;27.40;99.90;;;;;;1847671;77;21112;-78
2022/07/12 04:46:46;;;;;;;8.73;3.27;;;27.50;99.90;;;;;;1809779;77;21175;-78
2022/07/12 04:49:17;;;;;;;6.53;3.35;;;27.50;99.90;;;;;;1803906;79;21206;-77
2022/07/12 04:51:48;;;;;;;8.88;3.45;;;27.50;99.90;;;;;;1803210;79;21151;-76
2022/07/12 04:54:18;;;;;;;10.38;6.87;;;27.40;99.90;;;;;;1831578;78;21151;-77
2022/07/12 04:56:49;;;;;;;9.63;4.80;;;27.40;99.90;;;;;;1832978;77;21097;-77
2022/07/12 04:59:20;;;;;;;7.53;4.10;;;27.40;99.90;;;;;;1833943;78;21603;-77
2022/07/12 05:01:51;;;;;;;8.70;4.53;;;27.40;99.90;;;;;;1832896;77;21656;-77
2022/07/12 05:04:22;;;;;;;5.85;3.70;;;27.40;99.90;;;;;;1833428;77;21278;-77
2022/07/12 05:06:53;;;;;;;7.08;3.70;;;27.50;99.90;;;;;;1833028;77;21136;-76
2022/07/12 05:09:24;;;;;;;8.13;4.28;;;27.50;99.90;;;;;;1833772;77;21176;-77
2022/07/12 05:11:55;;;;;;;6.65;4.17;;;27.50;99.90;;;;;;1832440;77;21199;-78
2022/07/12 05:14:26;;;;;;;6.37;4.37;;;27.50;99.90;;;;;;1833585;77;21676;-79
2022/07/12 05:16:57;;;;;;;7.72;4.17;;;27.50;99.90;;;;;;1825502;78;21686;-77
2022/07/12 05:19:28;;;;;;;6.97;3.52;;;27.50;99.90;;;;;;1821759;79;21146;-78
2022/07/12 05:21:59;;;;;;;5.30;3.12;;;27.50;99.90;;;;;;1817248;79;21084;-77
2022/07/12 05:24:30;;;;;;;12.98;6.30;;;27.50;99.90;;;;;;1821668;77;21677;-78
2022/07/12 05:27:01;;;;;;;13.40;6.95;;;27.40;99.90;;;;;;1821901;79;21222;-78
2022/07/12 05:29:32;;;;;;;14.43;9.75;;;27.30;99.90;;;;;;1815417;79;21735;-78
2022/07/12 05:32:05;;;;;;;5.17;2.52;;;27.30;99.90;;;;;;1817826;77;21531;-76
2022/07/12 05:34:39;;;;;;;4.50;2.15;;;27.30;99.90;;;;;;1813888;77;21072;-77
2022/07/12 05:37:09;;;;;;;4.22;2.02;;;27.30;99.90;;;;;;1815356;79;21214;-78
2022/07/12 05:39:41;;;;;;;4.37;1.95;;;27.20;99.90;;;;;;1819337;77;21127;-79
2022/07/12 05:42:13;;;;;;;2.90;1.60;;;27.20;99.90;;;;;;1808133;77;21514;-77
2022/07/12 05:44:44;;;;;;;4.72;1.60;;;27.10;99.90;;;;;;1811616;77;21205;-78
2022/07/12 05:47:15;;;;;;;5.42;2.90;;;27.00;99.90;;;;;;1815925;79;21148;-78
2022/07/12 05:49:45;;;;;;;13.62;4.28;;;27.00;99.90;;;;;;1816263;77;21159;-78
2022/07/12 05:54:48;;;;;;;17.52;8.45;;;26.90;99.90;;;;;;1810668;77;21113;-78
2022/07/12 05:57:19;;;;;;;12.13;3.22;;;26.90;99.90;;;;;;1812647;79;21144;-79
2022/07/12 05:59:50;;;;;;;10.03;3.30;;;26.80;99.90;;;;;;1815186;79;21198;-79
2022/07/12 06:02:21;;;;;;;5.78;2.27;;;26.70;99.90;;;;;;1817192;77;21296;-78
2022/07/12 06:04:52;;;;;;;5.83;2.80;;;26.60;99.90;;;;;;1813360;77;21622;-78
2022/07/12 06:07:23;;;;;;;7.28;2.77;;;26.60;99.90;;;;;;1813174;77;21167;-78
2022/07/12 06:09:55;;;;;;;5.28;2.47;;;26.50;99.90;;;;;;1815653;79;21144;-77
2022/07/12 06:12:26;;;;;;;6.30;2.80;;;26.50;99.90;;;;;;1809153;79;21625;-77
2022/07/12 06:14:57;;;;;;;5.67;2.37;;;26.40;99.90;;;;;;1811583;79;21534;-78
2022/07/12 06:17:28;;;;;;;4.47;2.33;;;26.40;99.90;;;;;;1820164;77;21140;-77
2022/07/12 06:19:59;;;;;;;5.58;2.10;;;26.40;99.90;;;;;;1821858;77;21164;-78
2022/07/12 06:22:30;;;;;;;4.95;2.75;;;26.50;99.90;;;;;;1821958;77;21140;-79
2022/07/12 06:25:01;;;;;;;6.35;2.70;;;26.50;99.90;;;;;;1821537;77;21599;-79
2022/07/12 06:27:34;;;;;;;6.22;2.80;;;26.50;99.90;;;;;;1818262;79;21137;-79
2022/07/12 06:30:05;;;;;;;5.85;2.80;;;26.50;99.90;;;;;;1822005;79;21188;-79
2022/07/12 06:32:41;;;;;;;6.33;2.90;;;26.50;99.90;;;;;;1822355;79;21097;-79
2022/07/12 06:35:09;;;;;;;4.62;2.55;;;26.50;99.90;;;;;;1821660;77;21236;-78
2022/07/12 06:37:40;;;;;;;4.85;2.70;;;26.40;99.90;;;;;;1792493;80;21148;-77
2022/07/12 06:40:12;;;;;;;5.03;2.67;;;26.30;99.90;;;;;;1792631;80;21222;-77
2022/07/12 06:42:43;;;;;;;4.15;2.80;;;26.20;99.90;;;;;;1800026;79;21619;-78
2022/07/12 06:45:16;;;;;;;6.65;2.33;;;26.20;99.90;;;;;;1822057;77;21257;-78
2022/07/12 06:47:47;;;;;;;6.35;3.30;;;26.10;99.90;;;;;;1822276;78;21149;-78
2022/07/12 06:50:18;;;;;;;9.78;3.15;;;26.00;99.90;;;;;;1822529;79;21136;-78
2022/07/12 06:52:49;;;;;;;7.42;3.50;;;26.00;99.90;;;;;;1820856;79;21266;-78
2022/07/12 06:55:20;;;;;;;9.95;3.85;;;25.90;99.90;;;;;;1811552;77;21611;-78
2022/07/12 06:57:51;;;;;;;6.62;3.12;;;25.90;99.90;;;;;;1812531;77;21203;-77
2022/07/12 07:00:22;;;;;;;4.95;3.05;;;25.90;99.90;;;;;;1819247;79;21594;-77
2022/07/12 07:02:53;;;;;;;6.28;2.92;;;25.80;99.90;;;;;;1819118;79;21777;-78
2022/07/12 07:05:25;;;;;;;8.53;3.15;;;25.80;99.90;;;;;;1811898;77;21097;-79
2022/07/12 07:07:56;;;;;;;7.70;3.62;;;25.70;99.90;;;;;;1817191;79;21159;-78
2022/07/12 07:10:27;;;;;;;7.35;4.30;;;25.70;99.90;;;;;;1812480;77;21185;-79
2022/07/12 07:12:58;;;;;;;6.50;4.20;;;25.70;99.90;;;;;;1810299;77;21242;-79
2022/07/12 07:15:29;;;;;;;7.10;3.80;;;25.70;99.90;;;;;;1811144;79;21164;-78
2022/07/12 07:18:01;;;;;;;9.98;5.05;;;25.80;99.90;;;;;;1817361;78;21160;-78
2022/07/12 07:20:33;;;;;;;7.37;4.30;;;25.80;99.90;;;;;;1817046;77;21080;-77
2022/07/12 07:23:05;;;;;;;6.08;3.72;;;25.80;99.90;;;;;;1814868;77;21137;-77
2022/07/12 07:25:40;;;;;;;8.50;3.75;;;25.80;99.90;;;;;;1810003;77;21163;-79
2022/07/12 07:28:11;;;;;;;11.93;5.40;;;25.80;99.90;;;;;;1817799;77;21146;-78
2022/07/12 07:30:52;;;;;;;8.40;5.53;;;25.80;99.90;;;;;;1812811;79;21154;-78
2022/07/12 07:33:15;;;;;;;11.63;5.87;;;25.90;99.90;;;;;;1819736;78;21714;-78
2022/07/12 07:35:46;;;;;;;8.35;4.45;;;25.90;99.90;;;;;;1815916;77;21192;-78
2022/07/12 07:38:18;;;;;;;9.10;4.50;;;26.00;99.90;;;;;;1822330;79;21274;-77
2022/07/12 07:40:49;;;;;;;9.00;4.65;;;26.10;99.90;;;;;;1821821;77;21232;-77
2022/07/12 07:43:20;;;;;;;11.33;6.87;;;26.10;99.90;;;;;;1821337;79;21691;-77
2022/07/12 07:45:51;;;;;;;8.10;5.22;;;26.20;99.90;;;;;;1820034;77;21731;-77
2022/07/12 07:48:22;;;;;;;13.45;8.55;;;26.20;99.90;;;;;;1822015;79;21354;-77
2022/07/12 07:50:55;;;;;;;7.35;3.72;;;26.20;99.90;;;;;;1823174;78;21621;-78
2022/07/12 07:53:26;;;;;;;7.97;3.92;;;26.30;99.90;;;;;;1822513;77;21235;-77
2022/07/12 07:55:57;;;;;;;6.53;4.47;;;26.30;99.90;;;;;;1821006;77;21190;-78
2022/07/12 07:58:29;;;;;;;7.97;5.05;;;26.20;99.90;;;;;;1823371;79;21172;-78
2022/07/12 08:01:00;;;;;;;8.20;5.58;;;26.30;99.90;;;;;;1820574;79;21131;-78
2022/07/12 08:03:30;;;;;;;16.93;13.48;;;26.40;99.90;;;;;;1849360;76;21594;-78
2022/07/12 08:06:01;;;;;;;6.70;3.58;;;26.40;99.90;;;;;;1827803;77;21728;-78
2022/07/12 08:08:37;;;;;;;36.70;22.40;;;26.40;99.90;;;;;;1841794;77;21696;-77
2022/07/12 08:11:12;;;;;;;12.65;9.40;;;26.40;99.90;;;;;;1830573;77;21153;-78
2022/07/12 08:13:43;;;;;;;9.40;7.55;;;26.50;99.90;;;;;;1827548;77;21165;-78
2022/07/12 08:16:14;;;;;;;7.05;4.87;;;26.50;99.90;;;;;;1829252;77;21064;-77
2022/07/12 08:18:46;;;;;;;9.43;7.15;;;26.60;99.90;;;;;;1833950;77;21104;-77
2022/07/12 08:21:17;;;;;;;12.25;8.25;;;26.60;99.90;;;;;;1829246;78;21688;-79
2022/07/12 08:23:48;;;;;;;12.88;9.38;;;26.70;99.90;;;;;;1817180;77;21838;-72
2022/07/12 08:26:19;;;;;;;6.70;4.85;;;26.80;99.90;;;;;;1818761;77;21791;-73
2022/07/12 08:28:51;;;;;;;12.05;5.83;;;26.80;99.90;;;;;;1834968;77;21700;-73
2022/07/12 08:31:22;;;;;;;24.40;16.90;;;26.80;99.90;;;;;;1799615;78;21679;-72
2022/07/12 08:33:53;;;;;;;13.50;8.15;;;26.90;99.90;;;;;;1858334;77;21142;-73
2022/07/12 08:36:24;;;;;;;13.72;9.18;;;26.90;99.90;;;;;;1860936;77;21729;-73
2022/07/12 08:38:57;;;;;;;14.28;10.90;;;27.00;99.90;;;;;;1849916;77;21131;-73
2022/07/12 08:41:29;;;;;;;9.10;6.92;;;27.10;99.90;;;;;;1831036;77;21099;-73
2022/07/12 08:44:02;;;;;;;7.10;3.67;;;27.10;99.90;;;;;;1835669;77;21150;-72
2022/07/12 08:46:33;;;;;;;9.30;3.72;;;27.20;99.90;;;;;;1795006;79;21154;-72
2022/07/12 08:49:09;;;;;;;8.10;3.83;;;27.20;99.90;;;;;;1855885;77;22108;-71
2022/07/12 08:51:39;;;;;;;7.50;3.33;;;27.20;99.90;;;;;;1852031;77;21143;-71
2022/07/12 08:54:12;;;;;;;7.08;3.40;;;27.20;99.90;;;;;;1824714;78;21162;-72
2022/07/12 08:56:44;;;;;;;7.30;4.62;;;27.30;99.90;;;;;;1853538;77;21121;-72
2022/07/12 08:59:17;;;;;;;5.97;3.10;;;27.30;99.90;;;;;;1817197;78;21145;-73
2022/07/12 09:01:50;;;;;;;5.20;3.42;;;27.30;99.90;;;;;;1836610;77;21174;-72
2022/07/12 09:04:26;;;;;;;6.03;3.42;;;27.40;99.90;;;;;;1847465;77;21147;-72
2022/07/12 09:06:56;;;;;;;7.72;3.37;;;27.40;99.90;;;;;;1827337;77;22446;-72
2022/07/12 09:09:29;;;;;;;9.25;4.28;;;27.40;99.90;;;;;;1829101;77;21122;-71
2022/07/12 09:12:01;;;;;;;7.22;3.50;;;27.50;99.90;;;;;;1825482;78;21624;-71
2022/07/12 09:14:32;;;;;;;7.50;4.97;;;27.60;99.90;;;;;;1817969;78;21160;-71
2022/07/12 09:17:04;;;;;;;7.10;4.55;;;27.60;99.90;;;;;;1837199;77;21162;-72
2022/07/12 09:19:35;;;;;;;5.70;4.15;;;27.60;99.90;;;;;;1840215;76;21134;-72
2022/07/12 09:22:07;;;;;;;11.22;6.90;;;27.60;99.90;;;;;;1844160;77;21193;-72
2022/07/12 09:24:38;;;;;;;8.90;4.05;;;27.60;99.90;;;;;;1837953;77;21127;-71
2022/07/12 09:27:10;;;;;;;16.35;9.98;;;27.70;99.90;;;;;;1824132;77;21598;-69
2022/07/12 09:29:43;;;;;;;5.70;3.65;;;27.70;99.90;;;;;;1778331;79;21248;-70
2022/07/12 09:37:20;;;;;;;8.63;3.67;;;27.70;99.90;;;;;;1824557;78;22262;-78
2022/07/12 09:39:53;;;;;;;7.58;3.70;;;27.70;99.90;;;;;;1797975;78;21594;-78
2022/07/12 09:42:26;;;;;;;5.92;3.90;;;27.80;99.90;;;;;;1839698;77;21175;-79
2022/07/12 09:44:58;;;;;;;8.80;4.83;;;27.80;99.90;;;;;;1826332;78;21187;-79
2022/07/12 09:47:29;;;;;;;7.08;3.60;;;27.80;99.90;;;;;;1841535;77;21175;-79
2022/07/12 09:50:00;;;;;;;9.85;2.87;;;27.80;99.90;;;;;;1829317;77;21217;-80
2022/07/12 09:52:33;;;;;;;12.03;4.25;;;27.90;99.90;;;;;;1842704;77;21196;-79
2022/07/12 09:55:05;;;;;;;6.15;3.45;;;27.80;99.90;;;;;;1839455;77;21791;-79
2022/07/12 09:57:38;;;;;;;9.68;4.75;;;27.90;99.90;;;;;;1843019;77;21257;-79
2022/07/12 10:00:11;;;;;;;5.90;3.85;;;27.90;99.90;;;;;;1825778;78;21138;-79
2022/07/12 10:02:43;;;;;;;7.72;4.62;;;27.90;99.90;;;;;;1831416;78;22007;-79
2022/07/12 10:05:16;;;;;;;6.58;3.72;;;27.90;99.90;;;;;;1791515;80;21115;-77
2022/07/12 10:07:47;;;;;;;6.87;3.60;;;27.90;99.90;;;;;;1791131;80;21213;-79
2022/07/12 10:10:19;;;;;;;11.22;3.80;;;27.90;99.90;;;;;;1808071;78;21166;-78
2022/07/12 10:12:52;;;;;;;6.53;3.92;;;27.90;99.90;;;;;;1791101;80;21241;-80
2022/07/12 10:15:26;;;;;;;8.83;4.15;;;27.90;99.90;;;;;;1821022;79;21154;-80
2022/07/12 10:17:59;;;;;;;9.38;6.47;;;27.90;99.90;;;;;;1822570;77;21146;-79
2022/07/12 10:20:30;;;;;;;11.38;4.53;;;27.90;99.90;;;;;;1811425;77;21072;-80
2022/07/12 10:23:05;;;;;;;7.17;4.42;;;27.90;99.90;;;;;;1814822;79;21161;-79
2022/07/12 10:25:36;;;;;;;10.63;6.75;;;27.90;99.90;;;;;;1791321;78;21146;-78
2022/07/12 10:28:06;;;;;;;11.25;7.35;;;27.90;99.90;;;;;;1792523;78;21115;-78
2022/07/12 10:30:40;;;;;;;8.08;4.78;;;27.90;99.90;;;;;;1817979;77;21131;-79
2022/07/12 10:33:13;;;;;;;6.37;3.20;;;27.90;99.90;;;;;;1823265;77;21624;-78
2022/07/12 10:35:46;;;;;;;4.72;2.90;;;27.90;99.90;;;;;;1820736;77;21148;-79
2022/07/12 10:38:19;;;;;;;4.83;3.50;;;27.90;99.90;;;;;;1816578;77;21819;-79
2022/07/12 10:40:51;;;;;;;7.05;3.12;;;27.90;99.90;;;;;;1821901;77;21598;-79
2022/07/12 10:46:07;;;;;;;6.10;2.80;;;27.80;99.90;;;;;;1814691;79;21167;-80
2022/07/12 10:48:38;;;;;;;6.58;2.80;;;27.80;99.90;;;;;;1824595;77;21166;-80
2022/07/12 10:51:11;;;;;;;7.37;3.27;;;27.80;99.90;;;;;;1788583;80;21181;-80
2022/07/12 10:53:42;;;;;;;5.58;2.33;;;27.80;99.90;;;;;;1784868;79;21149;-80
2022/07/12 10:56:17;;;;;;;5.22;3.50;;;27.80;99.90;;;;;;1788593;79;21243;-79
2022/07/12 10:58:54;;;;;;;7.50;3.53;;;27.80;99.90;;;;;;1817309;79;21202;-80
2022/07/12 11:01:26;;;;;;;7.75;3.65;;;27.80;99.90;;;;;;1769328;80;22344;-79
2022/07/12 11:04:00;;;;;;;5.72;3.17;;;27.70;99.90;;;;;;1816992;79;21232;-79
2022/07/12 11:06:32;;;;;;;8.08;3.15;;;27.80;99.90;;;;;;1820287;77;21085;-80
2022/07/12 11:09:07;;;;;;;5.22;3.10;;;27.70;99.90;;;;;;1812557;79;22128;-79
2022/07/12 11:11:40;;;;;;;9.53;2.87;;;27.80;99.90;;;;;;1771257;79;21202;-79
2022/07/12 11:14:13;;;;;;;6.28;2.95;;;27.70;99.90;;;;;;1820843;77;21160;-79
2022/07/12 11:16:46;;;;;;;6.17;3.02;;;27.70;99.90;;;;;;1816705;79;21277;-78
2022/07/12 11:19:17;;;;;;;7.58;3.12;;;27.70;99.90;;;;;;1832787;77;21215;-79
2022/07/12 11:21:54;;;;;;;8.48;2.95;;;27.70;99.90;;;;;;1826221;77;21178;-79
2022/07/12 11:24:22;;;;;;;4.00;2.20;;;27.70;99.90;;;;;;1828818;77;21128;-79
2022/07/12 11:26:54;;;;;;;4.90;2.62;;;27.70;99.90;;;;;;1845450;77;21148;-80
2022/07/12 11:29:25;;;;;;;4.92;2.80;;;27.70;99.90;;;;;;1790197;79;21107;-79
2022/07/12 11:31:58;;;;;;;7.42;4.33;;;27.70;99.90;;;;;;1839132;77;21574;-79
2022/07/12 11:34:30;;;;;;;4.83;3.25;;;27.70;99.90;;;;;;1850127;77;21187;-79
2022/07/12 11:37:02;;;;;;;6.22;3.17;;;27.70;99.90;;;;;;1829895;77;21161;-78
2022/07/12 11:39:36;;;;;;;8.28;2.95;;;27.70;99.90;;;;;;1840789;77;22006;-78
2022/07/12 11:42:10;;;;;;;7.00;2.80;;;27.60;99.90;;;;;;1831515;77;21122;-79
2022/07/12 11:44:43;;;;;;;8.83;4.12;;;27.60;99.90;;;;;;1830087;78;21173;-78
2022/07/12 11:47:16;;;;;;;10.10;3.85;;;27.60;99.90;;;;;;1829538;78;21094;-78
2022/07/12 11:49:49;;;;;;;9.95;4.20;;;27.50;99.90;;;;;;1810031;79;21710;-79
2022/07/12 11:52:21;;;;;;;10.65;4.17;;;27.50;99.90;;;;;;1786946;79;21170;-79
2022/07/12 11:54:54;;;;;;;9.28;5.08;;;27.50;99.90;;;;;;1810510;78;21703;-79
2022/07/12 11:57:25;;;;;;;12.82;4.50;;;27.50;99.90;;;;;;1800687;78;21185;-79
2022/07/12 11:59:56;;;;;;;10.48;4.65;;;27.40;99.90;;;;;;1824382;77;21131;-79
2022/07/12 12:02:29;;;;;;;8.55;4.95;;;27.40;99.90;;;;;;1791807;80;21650;-78
2022/07/12 12:05:00;;;;;;;9.00;4.85;;;27.40;99.90;;;;;;1826714;78;21217;-78
2022/07/12 12:07:32;;;;;;;17.23;9.00;;;27.40;99.90;;;;;;1793842;78;21178;-78
2022/07/12 12:10:06;;;;;;;12.37;8.73;;;27.40;99.90;;;;;;1825036;78;21154;-78
2022/07/12 12:12:39;;;;;;;12.45;6.15;;;27.40;99.90;;;;;;1830018;77;21192;-78
2022/07/12 12:15:13;;;;;;;15.00;7.78;;;27.40;99.90;;;;;;1842321;77;21206;-78
2022/07/12 12:17:46;;;;;;;12.75;7.50;;;27.40;99.90;;;;;;1801590;78;21202;-78
2022/07/12 12:20:21;;;;;;;9.95;5.12;;;27.40;99.90;;;;;;1791886;78;21224;-78
2022/07/12 12:22:54;;;;;;;12.73;6.03;;;27.40;99.90;;;;;;1787825;78;21184;-79
2022/07/12 12:25:26;;;;;;;12.25;5.78;;;27.40;99.90;;;;;;1802367;78;21855;-78
2022/07/12 12:28:00;;;;;;;10.28;5.03;;;27.40;99.90;;;;;;1841840;77;21264;-77
2022/07/12 12:30:33;;;;;;;10.15;4.87;;;27.30;99.90;;;;;;1837391;77;21388;-78
2022/07/12 12:33:06;;;;;;;10.08;5.25;;;27.30;99.90;;;;;;1829744;78;21247;-78
2022/07/12 12:35:39;;;;;;;11.73;5.12;;;27.30;99.90;;;;;;1839985;77;21196;-78
2022/07/12 12:38:13;;;;;;;17.07;5.60;;;27.30;99.90;;;;;;1798954;78;21733;-79
2022/07/12 12:40:46;;;;;;;10.85;5.90;;;27.30;99.90;;;;;;1841524;77;21188;-79
2022/07/12 12:43:19;;;;;;;18.40;6.15;;;27.30;99.90;;;;;;1803551;78;21195;-79
2022/07/12 12:45:51;;;;;;;11.38;5.55;;;27.30;99.90;;;;;;1799574;78;21229;-78
2022/07/12 12:48:23;;;;;;;10.25;5.50;;;27.30;99.90;;;;;;1797110;78;21170;-79
2022/07/12 12:50:56;;;;;;;12.55;6.12;;;27.40;99.90;;;;;;1794432;80;21250;-79
2022/07/12 12:53:28;;;;;;;15.53;8.63;;;27.40;99.90;;;;;;1800656;78;21622;-76
2022/07/12 12:55:59;;;;;;;14.10;8.28;;;27.40;99.90;;;;;;1798436;78;21563;-77
2022/07/12 12:58:31;;;;;;;13.40;6.30;;;27.40;99.90;;;;;;1823567;77;21180;-77
2022/07/12 13:01:02;;;;;;;12.65;5.80;;;27.40;99.90;;;;;;1827097;77;21201;-77
2022/07/12 13:03:34;;;;;;;10.60;6.33;;;27.40;99.90;;;;;;1837914;77;21662;-79
2022/07/12 13:06:05;;;;;;;13.55;6.58;;;27.30;99.90;;;;;;1845796;77;21162;-78
2022/07/12 13:08:36;;;;;;;12.35;6.80;;;27.40;99.90;;;;;;1833697;77;21155;-78
2022/07/12 13:13:40;;;;;;;12.98;6.67;;;27.40;99.90;;;;;;1840876;77;21563;-77
2022/07/12 13:16:11;;;;;;;16.12;6.45;;;27.40;99.90;;;;;;1848956;77;21593;-77
2022/07/12 13:18:42;;;;;;;10.08;5.60;;;27.40;99.90;;;;;;1830310;77;21167;-78
2022/07/12 13:21:13;;;;;;;8.93;5.90;;;27.40;99.90;;;;;;1827454;77;21179;-78
2022/07/12 13:23:44;;;;;;;13.48;5.80;;;27.40;99.90;;;;;;1838984;77;21172;-78